sensor_id;sensor_type;location;lat;lon;timestamp;noise_LAeq;noise_LA_min;noise_LA_max;noise_LA01;noise_LA95
45964;Laerm;31671;48.092;11.842;2023-05-10T00:02:05;29.22;27.61;36.66;;
45964;Laerm;31671;48.092;11.842;2023-05-10T00:04:31;29.26;27.73;35.89;;
45964;Laerm;31671;48.092;11.842;2023-05-10T00:06:57;29.22;27.71;36.19;;
45964;Laerm;31671;48.092;11.842;2023-05-10T00:09:22;29.22;27.77;35.72;;
45964;Laerm;31671;48.092;11.842;2023-05-10T00:11:48;29.38;27.77;35.43;;
45964;Laerm;31671;48.092;11.842;2023-05-10T00:14:14;29.29;27.86;34.99;;
45964;Laerm;31671;48.092;11.842;2023-05-10T00:16:40;29.22;27.63;35.87;;
45964;Laerm;31671;48.092;11.842;2023-05-10T00:19:05;29.25;27.59;38.11;;
45964;Laerm;31671;48.092;11.842;2023-05-10T00:21:31;29.12;27.69;32.21;;
45964;Laerm;31671;48.092;11.842;2023-05-10T00:23:56;29.02;27.62;45.03;;
45964;Laerm;31671;48.092;11.842;2023-05-10T00:26:22;28.98;27.65;31.31;;
45964;Laerm;31671;48.092;11.842;2023-05-10T00:28:51;28.95;27.63;43.06;;
45964;Laerm;31671;48.092;11.842;2023-05-10T00:31:17;49.15;27.59;85.34;;
45964;Laerm;31671;48.092;11.842;2023-05-10T00:33:43;29.15;27.53;42.12;;
45964;Laerm;31671;48.092;11.842;2023-05-10T00:36:08;29.17;27.75;33.73;;
45964;Laerm;31671;48.092;11.842;2023-05-10T00:38:34;29.16;27.41;39.13;;
45964;Laerm;31671;48.092;11.842;2023-05-10T00:41:00;29.09;27.67;31.36;;
45964;Laerm;31671;48.092;11.842;2023-05-10T00:43:29;29.00;27.34;36.17;;
45964;Laerm;31671;48.092;11.842;2023-05-10T00:45:55;29.16;27.45;40.97;;
45964;Laerm;31671;48.092;11.842;2023-05-10T00:48:21;28.90;27.46;31.69;;
45964;Laerm;31671;48.092;11.842;2023-05-10T00:50:47;30.00;27.03;59.85;;
45964;Laerm;31671;48.092;11.842;2023-05-10T00:53:13;29.00;27.32;31.14;;
45964;Laerm;31671;48.092;11.842;2023-05-10T00:55:39;28.87;27.39;33.11;;
45964;Laerm;31671;48.092;11.842;2023-05-10T00:58:05;28.99;27.38;46.64;;
45964;Laerm;31671;48.092;11.842;2023-05-10T01:00:32;28.91;27.50;37.69;;
45964;Laerm;31671;48.092;11.842;2023-05-10T01:02:58;28.87;27.27;31.02;;
45964;Laerm;31671;48.092;11.842;2023-05-10T01:05:24;29.08;27.39;45.93;;
45964;Laerm;31671;48.092;11.842;2023-05-10T01:07:53;28.96;27.37;33.83;;
45964;Laerm;31671;48.092;11.842;2023-05-10T01:10:18;28.91;27.68;30.91;;
45964;Laerm;31671;48.092;11.842;2023-05-10T01:12:45;29.34;27.55;34.85;;
45964;Laerm;31671;48.092;11.842;2023-05-10T01:15:11;28.94;27.15;34.33;;
45964;Laerm;31671;48.092;11.842;2023-05-10T01:17:38;28.87;27.44;36.34;;
45964;Laerm;31671;48.092;11.842;2023-05-10T01:20:05;28.88;27.29;31.68;;
45964;Laerm;31671;48.092;11.842;2023-05-10T01:25:04;28.88;27.63;31.56;;
45964;Laerm;31671;48.092;11.842;2023-05-10T01:27:44;28.89;27.44;50.95;;
45964;Laerm;31671;48.092;11.842;2023-05-10T01:35:58;28.73;27.26;30.88;;
45964;Laerm;31671;48.092;11.842;2023-05-10T01:44:06;28.60;27.24;30.45;;
45964;Laerm;31671;48.092;11.842;2023-05-10T01:46:28;28.60;27.22;33.20;;
45964;Laerm;31671;48.092;11.842;2023-05-10T01:48:58;28.74;27.28;31.80;;
45964;Laerm;31671;48.092;11.842;2023-05-10T01:51:27;28.66;27.13;34.31;;
45964;Laerm;31671;48.092;11.842;2023-05-10T01:53:57;29.11;27.35;36.24;;
45964;Laerm;31671;48.092;11.842;2023-05-10T01:56:25;28.62;27.16;30.17;;
45964;Laerm;31671;48.092;11.842;2023-05-10T01:58:51;28.61;27.08;31.82;;
45964;Laerm;31671;48.092;11.842;2023-05-10T02:01:17;28.62;27.20;29.95;;
45964;Laerm;31671;48.092;11.842;2023-05-10T02:03:45;28.81;27.44;30.56;;
45964;Laerm;31671;48.092;11.842;2023-05-10T02:06:12;29.06;27.48;31.65;;
45964;Laerm;31671;48.092;11.842;2023-05-10T02:08:38;28.89;27.53;36.53;;
45964;Laerm;31671;48.092;11.842;2023-05-10T02:11:05;28.82;27.37;30.86;;
45964;Laerm;31671;48.092;11.842;2023-05-10T02:13:31;29.16;27.57;33.74;;
45964;Laerm;31671;48.092;11.842;2023-05-10T02:15:59;28.90;27.62;33.73;;
45964;Laerm;31671;48.092;11.842;2023-05-10T02:18:27;29.48;27.51;37.53;;
45964;Laerm;31671;48.092;11.842;2023-05-10T02:20:52;29.24;27.49;45.97;;
45964;Laerm;31671;48.092;11.842;2023-05-10T02:23:19;29.17;27.42;33.61;;
45964;Laerm;31671;48.092;11.842;2023-05-10T02:25:45;28.93;27.47;30.55;;
45964;Laerm;31671;48.092;11.842;2023-05-10T02:28:13;40.41;27.72;73.97;;
45964;Laerm;31671;48.092;11.842;2023-05-10T02:30:39;30.09;27.58;36.34;;
45964;Laerm;31671;48.092;11.842;2023-05-10T02:33:05;29.27;27.80;37.35;;
45964;Laerm;31671;48.092;11.842;2023-05-10T02:35:31;29.74;27.71;46.92;;
45964;Laerm;31671;48.092;11.842;2023-05-10T02:37:57;29.32;27.70;41.26;;
45964;Laerm;31671;48.092;11.842;2023-05-10T02:40:24;31.63;27.81;51.91;;
45964;Laerm;31671;48.092;11.842;2023-05-10T02:42:51;31.72;28.00;39.88;;
45964;Laerm;31671;48.092;11.842;2023-05-10T02:45:19;31.18;28.08;37.71;;
45964;Laerm;31671;48.092;11.842;2023-05-10T02:47:45;31.86;27.95;41.76;;
45964;Laerm;31671;48.092;11.842;2023-05-10T02:50:11;31.38;27.80;60.55;;
45964;Laerm;31671;48.092;11.842;2023-05-10T02:52:42;29.94;27.82;38.01;;
45964;Laerm;31671;48.092;11.842;2023-05-10T02:55:11;29.70;27.61;39.83;;
45964;Laerm;31671;48.092;11.842;2023-05-10T02:57:38;29.71;27.06;39.15;;
45964;Laerm;31671;48.092;11.842;2023-05-10T03:00:06;29.67;27.27;40.56;;
45964;Laerm;31671;48.092;11.842;2023-05-10T03:02:32;29.56;27.51;42.65;;
45964;Laerm;31671;48.092;11.842;2023-05-10T03:04:58;30.10;27.73;53.28;;
45964;Laerm;31671;48.092;11.842;2023-05-10T03:07:24;29.71;27.76;41.67;;
45964;Laerm;31671;48.092;11.842;2023-05-10T03:09:49;29.52;27.72;42.21;;
45964;Laerm;31671;48.092;11.842;2023-05-10T03:12:19;29.82;27.63;54.37;;
45964;Laerm;31671;48.092;11.842;2023-05-10T03:17:35;29.41;27.58;41.10;;
45964;Laerm;31671;48.092;11.842;2023-05-10T03:20:08;29.18;27.46;34.08;;
45964;Laerm;31671;48.092;11.842;2023-05-10T03:22:44;29.10;27.64;31.50;;
45964;Laerm;31671;48.092;11.842;2023-05-10T03:25:10;29.31;27.90;32.14;;
45964;Laerm;31671;48.092;11.842;2023-05-10T03:27:39;29.44;27.67;40.79;;
45964;Laerm;31671;48.092;11.842;2023-05-10T03:30:06;29.00;27.44;34.73;;
45964;Laerm;31671;48.092;11.842;2023-05-10T03:32:33;29.61;27.46;40.73;;
45964;Laerm;31671;48.092;11.842;2023-05-10T03:34:59;30.75;27.29;43.70;;
45964;Laerm;31671;48.092;11.842;2023-05-10T03:37:25;29.53;27.60;39.97;;
45964;Laerm;31671;48.092;11.842;2023-05-10T03:39:50;29.15;27.56;38.67;;
45964;Laerm;31671;48.092;11.842;2023-05-10T03:42:16;29.22;27.66;39.59;;
45964;Laerm;31671;48.092;11.842;2023-05-10T03:44:42;29.38;27.61;40.00;;
45964;Laerm;31671;48.092;11.842;2023-05-10T03:47:08;29.23;27.53;38.11;;
45964;Laerm;31671;48.092;11.842;2023-05-10T03:49:33;29.36;27.64;44.11;;
45964;Laerm;31671;48.092;11.842;2023-05-10T03:51:59;29.17;27.58;36.73;;
45964;Laerm;31671;48.092;11.842;2023-05-10T03:54:25;29.20;27.78;36.23;;
45964;Laerm;31671;48.092;11.842;2023-05-10T03:56:51;29.70;27.73;46.47;;
45964;Laerm;31671;48.092;11.842;2023-05-10T03:59:18;29.41;27.76;38.73;;
45964;Laerm;31671;48.092;11.842;2023-05-10T04:01:44;29.24;27.49;36.10;;
45964;Laerm;31671;48.092;11.842;2023-05-10T04:04:09;29.30;27.73;36.52;;
45964;Laerm;31671;48.092;11.842;2023-05-10T04:06:35;29.16;27.70;39.96;;
45964;Laerm;31671;48.092;11.842;2023-05-10T04:09:02;29.55;27.57;38.21;;
45964;Laerm;31671;48.092;11.842;2023-05-10T04:11:27;29.19;27.63;37.24;;
45964;Laerm;31671;48.092;11.842;2023-05-10T04:13:53;29.46;27.72;39.64;;
45964;Laerm;31671;48.092;11.842;2023-05-10T04:16:19;30.40;27.97;42.25;;
45964;Laerm;31671;48.092;11.842;2023-05-10T04:18:44;29.51;27.51;39.14;;
45964;Laerm;31671;48.092;11.842;2023-05-10T04:21:11;29.23;27.50;39.36;;
45964;Laerm;31671;48.092;11.842;2023-05-10T04:23:36;33.10;27.68;59.41;;
45964;Laerm;31671;48.092;11.842;2023-05-10T04:26:02;29.86;27.33;42.72;;
45964;Laerm;31671;48.092;11.842;2023-05-10T04:28:28;29.29;27.58;36.50;;
45964;Laerm;31671;48.092;11.842;2023-05-10T04:30:59;29.72;27.65;49.46;;
45964;Laerm;31671;48.092;11.842;2023-05-10T04:33:25;29.28;27.49;34.61;;
45964;Laerm;31671;48.092;11.842;2023-05-10T04:35:51;29.33;27.64;39.29;;
45964;Laerm;31671;48.092;11.842;2023-05-10T04:38:16;29.49;27.53;34.32;;
45964;Laerm;31671;48.092;11.842;2023-05-10T04:40:42;29.78;27.60;38.61;;
45964;Laerm;31671;48.092;11.842;2023-05-10T04:43:08;29.91;27.78;39.07;;
45964;Laerm;31671;48.092;11.842;2023-05-10T04:45:33;31.90;27.31;50.90;;
45964;Laerm;31671;48.092;11.842;2023-05-10T04:47:59;29.29;27.73;39.23;;
45964;Laerm;31671;48.092;11.842;2023-05-10T04:50:25;29.66;27.63;45.82;;
45964;Laerm;31671;48.092;11.842;2023-05-10T04:52:50;29.61;27.89;36.61;;
45964;Laerm;31671;48.092;11.842;2023-05-10T04:55:16;29.27;27.33;41.56;;
45964;Laerm;31671;48.092;11.842;2023-05-10T04:57:42;35.74;27.55;66.93;;
45964;Laerm;31671;48.092;11.842;2023-05-10T05:00:08;29.52;27.78;40.25;;
45964;Laerm;31671;48.092;11.842;2023-05-10T05:02:34;29.81;27.68;40.55;;
45964;Laerm;31671;48.092;11.842;2023-05-10T05:04:59;29.50;27.62;38.33;;
45964;Laerm;31671;48.092;11.842;2023-05-10T05:07:25;29.62;27.82;39.58;;
45964;Laerm;31671;48.092;11.842;2023-05-10T05:09:51;29.45;27.44;37.84;;
45964;Laerm;31671;48.092;11.842;2023-05-10T05:12:16;29.73;27.90;38.49;;
45964;Laerm;31671;48.092;11.842;2023-05-10T05:14:42;29.57;27.48;39.87;;
45964;Laerm;31671;48.092;11.842;2023-05-10T05:17:07;29.39;27.57;40.00;;
45964;Laerm;31671;48.092;11.842;2023-05-10T05:19:33;29.49;27.56;37.97;;
45964;Laerm;31671;48.092;11.842;2023-05-10T05:21:59;30.22;27.73;47.33;;
45964;Laerm;31671;48.092;11.842;2023-05-10T05:24:25;29.44;27.37;38.73;;
45964;Laerm;31671;48.092;11.842;2023-05-10T05:26:50;29.42;27.73;39.29;;
45964;Laerm;31671;48.092;11.842;2023-05-10T05:29:16;29.29;27.60;41.73;;
45964;Laerm;31671;48.092;11.842;2023-05-10T05:31:41;30.36;27.86;49.74;;
45964;Laerm;31671;48.092;11.842;2023-05-10T05:34:07;30.95;27.68;51.85;;
45964;Laerm;31671;48.092;11.842;2023-05-10T05:36:35;29.81;27.92;37.32;;
45964;Laerm;31671;48.092;11.842;2023-05-10T05:39:01;30.69;28.05;52.37;;
45964;Laerm;31671;48.092;11.842;2023-05-10T05:41:27;30.10;28.22;37.99;;
45964;Laerm;31671;48.092;11.842;2023-05-10T05:43:52;30.01;28.26;35.75;;
45964;Laerm;31671;48.092;11.842;2023-05-10T05:46:18;34.96;28.20;56.00;;
45964;Laerm;31671;48.092;11.842;2023-05-10T05:48:44;29.90;27.84;38.50;;
45964;Laerm;31671;48.092;11.842;2023-05-10T05:51:09;30.04;27.93;38.69;;
45964;Laerm;31671;48.092;11.842;2023-05-10T05:53:35;29.78;28.03;36.10;;
45964;Laerm;31671;48.092;11.842;2023-05-10T05:56:01;31.04;28.11;52.42;;
45964;Laerm;31671;48.092;11.842;2023-05-10T05:58:27;30.04;27.98;39.00;;
45964;Laerm;31671;48.092;11.842;2023-05-10T06:00:52;30.87;27.92;54.48;;
45964;Laerm;31671;48.092;11.842;2023-05-10T06:03:18;30.33;28.23;43.85;;
45964;Laerm;31671;48.092;11.842;2023-05-10T06:05:44;30.32;28.09;47.44;;
45964;Laerm;31671;48.092;11.842;2023-05-10T06:08:10;32.11;28.20;53.81;;
45964;Laerm;31671;48.092;11.842;2023-05-10T06:10:36;29.97;28.04;42.64;;
45964;Laerm;31671;48.092;11.842;2023-05-10T06:13:01;32.04;27.94;55.22;;
45964;Laerm;31671;48.092;11.842;2023-05-10T06:15:27;29.75;27.79;51.32;;
45964;Laerm;31671;48.092;11.842;2023-05-10T06:17:53;30.81;27.64;55.64;;
45964;Laerm;31671;48.092;11.842;2023-05-10T06:20:19;29.84;27.90;48.89;;
45964;Laerm;31671;48.092;11.842;2023-05-10T06:22:44;30.30;27.84;41.20;;
45964;Laerm;31671;48.092;11.842;2023-05-10T06:25:10;30.20;27.87;43.38;;
45964;Laerm;31671;48.092;11.842;2023-05-10T06:27:36;29.49;27.92;39.24;;
45964;Laerm;31671;48.092;11.842;2023-05-10T06:30:02;29.48;27.82;32.85;;
45964;Laerm;31671;48.092;11.842;2023-05-10T06:32:27;29.87;27.85;43.65;;
45964;Laerm;31671;48.092;11.842;2023-05-10T06:34:53;29.63;27.60;34.46;;
45964;Laerm;31671;48.092;11.842;2023-05-10T06:37:19;29.35;27.72;35.25;;
45964;Laerm;31671;48.092;11.842;2023-05-10T06:39:44;29.88;27.73;45.17;;
45964;Laerm;31671;48.092;11.842;2023-05-10T06:42:10;29.14;27.69;31.26;;
45964;Laerm;31671;48.092;11.842;2023-05-10T06:44:36;29.75;27.71;41.68;;
45964;Laerm;31671;48.092;11.842;2023-05-10T06:47:01;29.35;27.52;40.70;;
45964;Laerm;31671;48.092;11.842;2023-05-10T06:49:27;29.28;27.63;32.60;;
45964;Laerm;31671;48.092;11.842;2023-05-10T06:51:53;29.27;27.46;40.83;;
45964;Laerm;31671;48.092;11.842;2023-05-10T06:54:18;29.39;27.69;43.03;;
45964;Laerm;31671;48.092;11.842;2023-05-10T06:56:44;29.25;27.73;33.22;;
45964;Laerm;31671;48.092;11.842;2023-05-10T06:59:10;29.12;27.67;34.19;;
45964;Laerm;31671;48.092;11.842;2023-05-10T07:01:35;29.16;27.64;32.44;;
45964;Laerm;31671;48.092;11.842;2023-05-10T07:04:01;29.32;27.72;33.85;;
45964;Laerm;31671;48.092;11.842;2023-05-10T07:06:27;29.31;27.65;33.99;;
45964;Laerm;31671;48.092;11.842;2023-05-10T07:08:52;29.09;27.55;33.23;;
45964;Laerm;31671;48.092;11.842;2023-05-10T07:11:18;29.62;27.46;36.21;;
45964;Laerm;31671;48.092;11.842;2023-05-10T07:13:44;29.36;27.26;36.97;;
45964;Laerm;31671;48.092;11.842;2023-05-10T07:16:10;29.28;27.59;33.55;;
45964;Laerm;31671;48.092;11.842;2023-05-10T07:18:35;29.32;27.76;42.68;;
45964;Laerm;31671;48.092;11.842;2023-05-10T07:21:01;29.14;27.84;34.85;;
45964;Laerm;31671;48.092;11.842;2023-05-10T07:23:27;29.18;27.63;31.39;;
45964;Laerm;31671;48.092;11.842;2023-05-10T07:25:53;29.23;27.78;34.17;;
45964;Laerm;31671;48.092;11.842;2023-05-10T07:28:18;29.19;27.74;33.38;;
45964;Laerm;31671;48.092;11.842;2023-05-10T07:30:44;29.71;27.97;35.65;;
45964;Laerm;31671;48.092;11.842;2023-05-10T07:33:11;29.19;27.70;35.46;;
45964;Laerm;31671;48.092;11.842;2023-05-10T07:35:37;29.17;27.62;34.95;;
45964;Laerm;31671;48.092;11.842;2023-05-10T07:38:03;29.35;27.72;33.76;;
45964;Laerm;31671;48.092;11.842;2023-05-10T07:40:29;29.40;27.73;39.75;;
45964;Laerm;31671;48.092;11.842;2023-05-10T07:42:55;29.70;27.72;47.50;;
45964;Laerm;31671;48.092;11.842;2023-05-10T07:45:21;29.13;27.83;33.79;;
45964;Laerm;31671;48.092;11.842;2023-05-10T07:47:46;29.31;27.90;37.42;;
45964;Laerm;31671;48.092;11.842;2023-05-10T07:50:12;29.72;27.67;43.40;;
45964;Laerm;31671;48.092;11.842;2023-05-10T07:52:38;29.98;27.76;41.48;;
45964;Laerm;31671;48.092;11.842;2023-05-10T07:55:04;29.91;27.69;43.82;;
45964;Laerm;31671;48.092;11.842;2023-05-10T07:57:29;29.40;27.80;41.30;;
45964;Laerm;31671;48.092;11.842;2023-05-10T07:59:55;29.44;27.91;36.49;;
45964;Laerm;31671;48.092;11.842;2023-05-10T08:02:21;29.44;27.90;37.95;;
45964;Laerm;31671;48.092;11.842;2023-05-10T08:04:46;30.00;28.08;46.46;;
45964;Laerm;31671;48.092;11.842;2023-05-10T08:07:12;29.59;28.37;34.70;;
45964;Laerm;31671;48.092;11.842;2023-05-10T08:09:38;29.77;28.24;32.85;;
45964;Laerm;31671;48.092;11.842;2023-05-10T08:12:04;30.10;28.20;43.49;;
45964;Laerm;31671;48.092;11.842;2023-05-10T08:14:29;30.22;28.80;33.91;;
45964;Laerm;31671;48.092;11.842;2023-05-10T08:16:55;30.19;28.68;34.81;;
45964;Laerm;31671;48.092;11.842;2023-05-10T08:19:21;30.05;28.51;40.48;;
45964;Laerm;31671;48.092;11.842;2023-05-10T08:21:47;30.96;28.53;54.09;;
45964;Laerm;31671;48.092;11.842;2023-05-10T08:24:12;29.81;28.29;32.88;;
45964;Laerm;31671;48.092;11.842;2023-05-10T08:26:38;29.75;28.36;44.19;;
45964;Laerm;31671;48.092;11.842;2023-05-10T08:29:04;34.30;28.27;58.25;;
45964;Laerm;31671;48.092;11.842;2023-05-10T08:31:30;36.24;28.26;66.78;;
45964;Laerm;31671;48.092;11.842;2023-05-10T08:33:55;29.53;27.96;44.49;;
45964;Laerm;31671;48.092;11.842;2023-05-10T08:36:21;29.51;27.87;32.18;;
45964;Laerm;31671;48.092;11.842;2023-05-10T08:38:49;29.56;28.09;37.00;;
45964;Laerm;31671;48.092;11.842;2023-05-10T08:41:15;29.58;27.85;34.64;;
45964;Laerm;31671;48.092;11.842;2023-05-10T08:43:41;29.59;28.18;33.95;;
45964;Laerm;31671;48.092;11.842;2023-05-10T08:46:08;29.60;28.08;35.31;;
45964;Laerm;31671;48.092;11.842;2023-05-10T08:48:34;29.58;28.07;34.26;;
45964;Laerm;31671;48.092;11.842;2023-05-10T08:51:00;29.98;28.22;46.38;;
45964;Laerm;31671;48.092;11.842;2023-05-10T08:53:28;29.81;28.38;36.18;;
45964;Laerm;31671;48.092;11.842;2023-05-10T08:55:54;29.96;28.68;35.27;;
45964;Laerm;31671;48.092;11.842;2023-05-10T08:58:20;30.12;28.75;38.64;;
45964;Laerm;31671;48.092;11.842;2023-05-10T09:00:46;30.17;28.86;41.01;;
45964;Laerm;31671;48.092;11.842;2023-05-10T09:03:12;30.23;28.64;38.92;;
45964;Laerm;31671;48.092;11.842;2023-05-10T09:05:38;30.51;29.01;38.29;;
45964;Laerm;31671;48.092;11.842;2023-05-10T09:08:04;30.72;29.03;42.84;;
45964;Laerm;31671;48.092;11.842;2023-05-10T09:10:30;30.84;28.94;46.68;;
45964;Laerm;31671;48.092;11.842;2023-05-10T09:12:56;30.58;28.99;39.05;;
45964;Laerm;31671;48.092;11.842;2023-05-10T09:15:22;30.76;29.26;44.89;;
45964;Laerm;31671;48.092;11.842;2023-05-10T09:17:49;30.34;28.97;38.47;;
45964;Laerm;31671;48.092;11.842;2023-05-10T09:20:14;30.47;28.90;39.16;;
45964;Laerm;31671;48.092;11.842;2023-05-10T09:22:40;30.42;28.74;42.64;;
45964;Laerm;31671;48.092;11.842;2023-05-10T09:25:06;30.22;28.69;39.43;;
45964;Laerm;31671;48.092;11.842;2023-05-10T09:27:33;32.27;28.91;57.63;;
45964;Laerm;31671;48.092;11.842;2023-05-10T09:29:58;29.97;28.57;32.99;;
45964;Laerm;31671;48.092;11.842;2023-05-10T09:37:33;30.52;29.16;34.27;;
45964;Laerm;31671;48.092;11.842;2023-05-10T09:39:58;30.99;29.14;51.06;;
45964;Laerm;31671;48.092;11.842;2023-05-10T09:42:24;30.47;28.95;46.84;;
45964;Laerm;31671;48.092;11.842;2023-05-10T09:44:50;30.52;28.65;37.96;;
45964;Laerm;31671;48.092;11.842;2023-05-10T09:47:18;30.16;28.89;33.22;;
45964;Laerm;31671;48.092;11.842;2023-05-10T09:49:48;30.10;28.73;38.01;;
45964;Laerm;31671;48.092;11.842;2023-05-10T09:52:14;30.11;28.80;33.85;;
45964;Laerm;31671;48.092;11.842;2023-05-10T09:54:42;30.15;28.76;33.80;;
45964;Laerm;31671;48.092;11.842;2023-05-10T09:57:18;30.35;28.94;37.33;;
45964;Laerm;31671;48.092;11.842;2023-05-10T09:59:45;30.18;28.54;35.37;;
45964;Laerm;31671;48.092;11.842;2023-05-10T10:02:11;30.33;29.00;33.77;;
45964;Laerm;31671;48.092;11.842;2023-05-10T10:04:40;31.21;29.26;49.02;;
45964;Laerm;31671;48.092;11.842;2023-05-10T10:07:06;30.59;29.16;41.97;;
45964;Laerm;31671;48.092;11.842;2023-05-10T10:09:33;30.59;29.32;33.24;;
45964;Laerm;31671;48.092;11.842;2023-05-10T10:11:59;30.36;29.03;33.14;;
45964;Laerm;31671;48.092;11.842;2023-05-10T10:14:25;31.06;29.06;35.33;;
45964;Laerm;31671;48.092;11.842;2023-05-10T10:16:51;31.13;28.64;47.17;;
45964;Laerm;31671;48.092;11.842;2023-05-10T10:19:19;29.78;28.23;33.89;;
45964;Laerm;31671;48.092;11.842;2023-05-10T10:21:46;29.93;28.08;45.48;;
45964;Laerm;31671;48.092;11.842;2023-05-10T10:24:11;29.60;27.94;33.22;;
45964;Laerm;31671;48.092;11.842;2023-05-10T10:26:37;29.51;28.19;31.94;;
45964;Laerm;31671;48.092;11.842;2023-05-10T10:29:16;29.43;28.06;32.56;;
45964;Laerm;31671;48.092;11.842;2023-05-10T10:34:21;30.17;28.43;36.87;;
45964;Laerm;31671;48.092;11.842;2023-05-10T10:36:50;30.05;28.58;34.68;;
45964;Laerm;31671;48.092;11.842;2023-05-10T10:39:16;29.91;28.44;34.45;;
45964;Laerm;31671;48.092;11.842;2023-05-10T10:41:51;30.36;28.30;37.51;;
45964;Laerm;31671;48.092;11.842;2023-05-10T10:49:32;30.76;28.46;45.88;;
45964;Laerm;31671;48.092;11.842;2023-05-10T10:57:17;29.91;28.59;31.92;;
45964;Laerm;31671;48.092;11.842;2023-05-10T10:59:43;30.01;28.67;32.43;;
45964;Laerm;31671;48.092;11.842;2023-05-10T11:02:09;30.79;28.71;49.01;;
45964;Laerm;31671;48.092;11.842;2023-05-10T11:04:41;30.65;28.69;45.74;;
45964;Laerm;31671;48.092;11.842;2023-05-10T11:07:16;30.63;28.60;41.61;;
45964;Laerm;31671;48.092;11.842;2023-05-10T11:09:41;30.21;28.49;40.05;;
45964;Laerm;31671;48.092;11.842;2023-05-10T11:12:08;35.48;28.61;65.49;;
45964;Laerm;31671;48.092;11.842;2023-05-10T11:14:34;30.24;28.56;36.13;;
45964;Laerm;31671;48.092;11.842;2023-05-10T11:17:00;29.87;28.58;32.59;;
45964;Laerm;31671;48.092;11.842;2023-05-10T11:19:29;29.90;28.66;34.85;;
45964;Laerm;31671;48.092;11.842;2023-05-10T11:22:12;29.94;28.54;42.03;;
45964;Laerm;31671;48.092;11.842;2023-05-10T11:24:38;30.06;28.49;35.19;;
45964;Laerm;31671;48.092;11.842;2023-05-10T11:27:05;29.96;28.48;40.64;;
45964;Laerm;31671;48.092;11.842;2023-05-10T11:29:31;29.99;28.50;39.00;;
45964;Laerm;31671;48.092;11.842;2023-05-10T11:31:57;29.84;28.40;39.61;;
45964;Laerm;31671;48.092;11.842;2023-05-10T11:34:27;29.93;28.36;38.12;;
45964;Laerm;31671;48.092;11.842;2023-05-10T11:36:54;30.01;28.34;40.70;;
45964;Laerm;31671;48.092;11.842;2023-05-10T11:39:20;29.74;28.18;34.01;;
45964;Laerm;31671;48.092;11.842;2023-05-10T11:41:48;30.19;28.42;41.81;;
45964;Laerm;31671;48.092;11.842;2023-05-10T11:44:14;30.20;28.64;42.18;;
45964;Laerm;31671;48.092;11.842;2023-05-10T11:46:39;30.06;28.32;38.72;;
45964;Laerm;31671;48.092;11.842;2023-05-10T11:49:06;29.44;28.25;32.47;;
45964;Laerm;31671;48.092;11.842;2023-05-10T11:51:33;29.53;27.88;38.16;;
45964;Laerm;31671;48.092;11.842;2023-05-10T11:53:59;29.38;27.87;32.43;;
45964;Laerm;31671;48.092;11.842;2023-05-10T11:56:24;29.49;28.12;36.68;;
45964;Laerm;31671;48.092;11.842;2023-05-10T11:58:56;29.61;27.90;35.71;;
45964;Laerm;31671;48.092;11.842;2023-05-10T12:01:23;29.42;27.78;39.77;;
45964;Laerm;31671;48.092;11.842;2023-05-10T12:03:49;29.41;28.03;33.92;;
45964;Laerm;31671;48.092;11.842;2023-05-10T12:06:15;29.42;27.96;34.24;;
45964;Laerm;31671;48.092;11.842;2023-05-10T12:08:44;29.77;28.25;46.67;;
45964;Laerm;31671;48.092;11.842;2023-05-10T12:11:09;30.52;28.06;36.09;;
45964;Laerm;31671;48.092;11.842;2023-05-10T12:13:38;31.08;28.07;44.40;;
45964;Laerm;31671;48.092;11.842;2023-05-10T12:16:17;30.83;28.54;45.49;;
45964;Laerm;31671;48.092;11.842;2023-05-10T12:18:43;33.55;28.67;55.85;;
45964;Laerm;31671;48.092;11.842;2023-05-10T12:21:11;47.69;29.79;67.73;;
45964;Laerm;31671;48.092;11.842;2023-05-10T12:23:40;37.57;28.97;59.53;;
45964;Laerm;31671;48.092;11.842;2023-05-10T12:26:08;33.71;28.89;57.68;;
45964;Laerm;31671;48.092;11.842;2023-05-10T12:28:34;39.15;30.97;59.69;;
45964;Laerm;31671;48.092;11.842;2023-05-10T12:31:00;33.52;30.98;49.62;;
45964;Laerm;31671;48.092;11.842;2023-05-10T12:33:26;34.15;31.04;50.14;;
45964;Laerm;31671;48.092;11.842;2023-05-10T12:35:53;32.36;29.82;48.86;;
45964;Laerm;31671;48.092;11.842;2023-05-10T12:38:32;36.11;30.34;50.48;;
45964;Laerm;31671;48.092;11.842;2023-05-10T12:40:59;34.94;32.02;46.00;;
45964;Laerm;31671;48.092;11.842;2023-05-10T12:43:25;34.05;31.67;44.54;;
45964;Laerm;31671;48.092;11.842;2023-05-10T12:45:51;33.30;29.28;48.06;;
45964;Laerm;31671;48.092;11.842;2023-05-10T12:48:19;31.76;29.18;49.67;;
45964;Laerm;31671;48.092;11.842;2023-05-10T12:50:45;32.27;29.69;37.97;;
45964;Laerm;31671;48.092;11.842;2023-05-10T12:53:11;31.63;28.90;59.68;;
45964;Laerm;31671;48.092;11.842;2023-05-10T12:55:37;30.65;28.68;43.33;;
45964;Laerm;31671;48.092;11.842;2023-05-10T12:58:02;31.13;29.09;45.51;;
45964;Laerm;31671;48.092;11.842;2023-05-10T13:00:28;31.09;28.30;57.85;;
45964;Laerm;31671;48.092;11.842;2023-05-10T13:02:54;30.29;27.93;39.42;;
45964;Laerm;31671;48.092;11.842;2023-05-10T13:05:19;30.31;28.45;41.31;;
45964;Laerm;31671;48.092;11.842;2023-05-10T13:07:45;30.05;28.11;38.09;;
45964;Laerm;31671;48.092;11.842;2023-05-10T13:10:11;29.85;28.02;36.10;;
45964;Laerm;31671;48.092;11.842;2023-05-10T13:12:36;29.59;27.72;36.80;;
45964;Laerm;31671;48.092;11.842;2023-05-10T13:15:02;29.72;27.89;35.73;;
45964;Laerm;31671;48.092;11.842;2023-05-10T13:17:28;29.50;27.91;35.54;;
45964;Laerm;31671;48.092;11.842;2023-05-10T13:19:54;29.34;27.69;35.79;;
45964;Laerm;31671;48.092;11.842;2023-05-10T13:22:20;29.53;27.72;35.47;;
45964;Laerm;31671;48.092;11.842;2023-05-10T13:24:46;29.92;27.99;42.64;;
45964;Laerm;31671;48.092;11.842;2023-05-10T13:27:11;29.86;28.06;44.83;;
45964;Laerm;31671;48.092;11.842;2023-05-10T13:29:37;29.78;27.90;37.26;;
45964;Laerm;31671;48.092;11.842;2023-05-10T13:32:03;29.68;27.79;39.44;;
45964;Laerm;31671;48.092;11.842;2023-05-10T13:34:28;32.64;27.99;61.34;;
45964;Laerm;31671;48.092;11.842;2023-05-10T13:36:54;29.82;28.01;39.20;;
45964;Laerm;31671;48.092;11.842;2023-05-10T13:39:20;29.61;27.54;42.61;;
45964;Laerm;31671;48.092;11.842;2023-05-10T13:41:45;29.65;27.61;42.62;;
45964;Laerm;31671;48.092;11.842;2023-05-10T13:44:12;29.32;27.54;35.69;;
45964;Laerm;31671;48.092;11.842;2023-05-10T13:46:37;29.47;27.58;39.74;;
45964;Laerm;31671;48.092;11.842;2023-05-10T13:49:03;29.50;27.86;35.84;;
45964;Laerm;31671;48.092;11.842;2023-05-10T13:51:29;29.76;27.62;44.12;;
45964;Laerm;31671;48.092;11.842;2023-05-10T13:53:54;29.43;27.94;33.10;;
45964;Laerm;31671;48.092;11.842;2023-05-10T13:56:20;29.61;27.94;35.26;;
45964;Laerm;31671;48.092;11.842;2023-05-10T13:58:46;30.26;28.05;49.74;;
45964;Laerm;31671;48.092;11.842;2023-05-10T14:01:11;30.40;27.82;49.48;;
45964;Laerm;31671;48.092;11.842;2023-05-10T14:03:37;30.17;27.89;37.62;;